createdAt,value
2018-11-10T00:01:10.380Z,99.90
2018-11-10T00:03:38.816Z,99.90
2018-11-10T00:06:07.267Z,99.90
2018-11-10T00:08:35.757Z,99.90
2018-11-10T00:11:04.193Z,99.90
2018-11-10T00:13:32.664Z,99.90
2018-11-10T00:16:01.137Z,99.90
2018-11-10T00:18:29.602Z,99.90
2018-11-10T00:20:58.064Z,99.90
2018-11-10T00:23:26.564Z,99.90
2018-11-10T00:25:54.997Z,99.90
2018-11-10T00:28:23.368Z,99.90
2018-11-10T00:30:51.796Z,99.90
2018-11-10T00:33:20.206Z,99.90
2018-11-10T00:35:48.781Z,99.90
2018-11-10T00:38:19.271Z,99.80
2018-11-10T00:40:47.699Z,99.80
2018-11-10T00:43:16.048Z,99.70
2018-11-10T00:45:44.555Z,99.60
2018-11-10T00:48:12.937Z,99.50
2018-11-10T00:50:41.498Z,99.40
2018-11-10T00:53:09.982Z,99.40
2018-11-10T00:55:38.444Z,99.30
2018-11-10T00:58:06.929Z,99.30
2018-11-10T01:00:35.312Z,99.00
2018-11-10T01:03:03.765Z,99.30
2018-11-10T01:05:32.155Z,99.10
2018-11-10T01:08:08.638Z,99.00
2018-11-10T01:10:57.386Z,99.00
2018-11-10T01:13:25.848Z,99.10
2018-11-10T01:15:54.268Z,98.90
2018-11-10T01:18:22.698Z,98.80
2018-11-10T01:20:51.111Z,98.60
2018-11-10T01:23:27.925Z,98.80
2018-11-10T01:25:56.480Z,98.70
2018-11-10T01:28:25.564Z,98.70
2018-11-10T01:30:53.899Z,98.50
2018-11-10T01:33:22.239Z,98.60
2018-11-10T01:35:51.661Z,98.70
2018-11-10T01:38:20.132Z,98.50
2018-11-10T01:40:48.552Z,98.60
2018-11-10T01:43:16.901Z,98.60
2018-11-10T01:45:45.525Z,98.60
2018-11-10T01:48:14.207Z,98.70
2018-11-10T01:50:42.934Z,98.40
2018-11-10T01:53:11.281Z,98.50
2018-11-10T01:55:39.697Z,98.30
2018-11-10T01:58:08.049Z,98.20
2018-11-10T02:00:36.709Z,98.30
2018-11-10T02:03:05.321Z,97.90
2018-11-10T02:05:33.936Z,97.60
2018-11-10T02:08:02.311Z,97.60
2018-11-10T02:10:30.720Z,97.70
2018-11-10T02:12:59.188Z,97.90
2018-11-10T02:15:27.890Z,97.70
2018-11-10T02:17:56.313Z,97.60
2018-11-10T02:20:25.164Z,97.60
2018-11-10T02:22:53.858Z,97.60
2018-11-10T02:25:22.332Z,97.60
2018-11-10T02:27:51.645Z,97.40
2018-11-10T02:30:20.012Z,97.30
2018-11-10T02:32:48.644Z,97.30
2018-11-10T02:35:17.006Z,97.50
2018-11-10T02:37:45.869Z,97.40
2018-11-10T02:40:15.276Z,97.40
2018-11-10T02:42:44.235Z,97.10
2018-11-10T02:45:14.794Z,97.60
2018-11-10T02:47:44.089Z,97.70
2018-11-10T02:50:12.928Z,97.40
2018-11-10T02:52:41.630Z,97.60
2018-11-10T02:55:10.942Z,97.80
2018-11-10T02:57:39.399Z,98.00
2018-11-10T03:00:09.140Z,98.30
2018-11-10T03:02:37.887Z,98.30
2018-11-10T03:05:07.502Z,98.40
2018-11-10T03:07:36.216Z,98.60
2018-11-10T03:10:05.560Z,98.60
2018-11-10T03:12:33.973Z,98.70
2018-11-10T03:15:02.383Z,99.30
2018-11-10T03:17:31.022Z,99.60
2018-11-10T03:19:59.423Z,99.90
2018-11-10T03:22:28.011Z,99.90
2018-11-10T03:24:56.885Z,99.90
2018-11-10T03:27:25.232Z,99.90
2018-11-10T03:29:53.627Z,99.90
2018-11-10T03:32:22.275Z,99.90
2018-11-10T03:34:50.704Z,99.90
2018-11-10T03:37:19.081Z,99.90
2018-11-10T03:39:47.483Z,99.90
2018-11-10T03:42:15.963Z,99.90
2018-11-10T03:44:44.677Z,99.90
2018-11-10T03:47:13.742Z,99.90
2018-11-10T03:49:42.158Z,99.90
2018-11-10T03:52:10.814Z,99.90
2018-11-10T03:54:39.179Z,99.90
2018-11-10T03:57:07.600Z,99.90
2018-11-10T03:59:36.082Z,99.90
2018-11-10T04:02:04.896Z,99.90
2018-11-10T04:04:33.313Z,99.90
2018-11-10T04:07:02.266Z,99.90
2018-11-10T04:09:31.085Z,99.90
2018-11-10T04:11:59.738Z,99.90
2018-11-10T04:14:28.158Z,99.90
2018-11-10T04:16:56.569Z,99.90
2018-11-10T04:19:24.968Z,99.90
2018-11-10T04:21:54.829Z,99.90
2018-11-10T04:24:23.260Z,99.90
2018-11-10T04:26:51.964Z,99.90
2018-11-10T04:29:21.277Z,99.90
2018-11-10T04:31:49.762Z,99.90
2018-11-10T04:34:18.153Z,99.90
2018-11-10T04:36:46.886Z,99.90
2018-11-10T04:39:15.533Z,99.90
2018-11-10T04:41:43.933Z,99.90
2018-11-10T04:44:12.500Z,99.90
2018-11-10T04:46:40.917Z,99.90
2018-11-10T04:49:09.289Z,99.90
2018-11-10T04:51:37.638Z,99.90
2018-11-10T04:54:06.069Z,99.90
2018-11-10T04:56:34.790Z,99.90
2018-11-10T04:59:03.189Z,99.90
2018-11-10T05:01:31.654Z,99.90
2018-11-10T05:03:59.895Z,99.90
2018-11-10T05:06:28.308Z,99.90
2018-11-10T05:08:56.751Z,99.90
2018-11-10T05:11:25.147Z,99.90
2018-11-10T05:13:55.034Z,99.90
2018-11-10T05:16:23.419Z,99.90
2018-11-10T05:18:51.843Z,99.90
2018-11-10T05:21:20.471Z,99.90
2018-11-10T05:23:50.201Z,99.90
2018-11-10T05:26:18.812Z,99.90
2018-11-10T05:28:47.508Z,99.90
2018-11-10T05:31:16.206Z,99.90
2018-11-10T05:33:44.468Z,99.90
2018-11-10T05:36:12.914Z,99.90
2018-11-10T05:38:41.641Z,99.90
2018-11-10T05:41:10.028Z,99.90
2018-11-10T05:43:38.599Z,99.90
2018-11-10T05:46:07.272Z,99.90
2018-11-10T05:48:35.871Z,99.90
2018-11-10T05:51:04.216Z,99.90
2018-11-10T05:53:32.610Z,99.90
2018-11-10T05:56:01.019Z,99.90
2018-11-10T05:58:29.349Z,99.90
2018-11-10T06:00:57.917Z,99.90
2018-11-10T06:03:26.831Z,99.90
2018-11-10T06:05:55.268Z,99.90
2018-11-10T06:08:24.141Z,99.90
2018-11-10T06:10:52.548Z,99.90
2018-11-10T06:13:21.126Z,99.90
2018-11-10T06:15:49.572Z,99.90
2018-11-10T06:18:18.559Z,99.90
2018-11-10T06:20:46.975Z,99.90
2018-11-10T06:23:15.376Z,99.90
2018-11-10T06:25:43.895Z,99.90
2018-11-10T06:28:12.815Z,99.90
2018-11-10T06:30:41.699Z,99.90
2018-11-10T06:33:10.100Z,99.90
2018-11-10T06:35:38.568Z,99.90
2018-11-10T06:38:07.135Z,99.90
2018-11-10T06:40:36.525Z,99.90
2018-11-10T06:43:05.633Z,99.90
2018-11-10T06:45:36.367Z,99.90
2018-11-10T06:48:05.388Z,99.90
2018-11-10T06:50:34.085Z,99.90
2018-11-10T06:53:02.714Z,99.90
2018-11-10T06:55:30.951Z,99.90
2018-11-10T06:57:59.335Z,99.90
2018-11-10T07:00:28.908Z,99.90
2018-11-10T07:02:57.537Z,99.90
2018-11-10T07:05:25.939Z,99.90
2018-11-10T07:07:58.213Z,99.90
2018-11-10T07:10:36.143Z,99.90
2018-11-10T07:13:04.758Z,99.90
2018-11-10T07:15:33.151Z,99.90
2018-11-10T07:18:01.631Z,99.90
2018-11-10T07:20:30.167Z,99.90
2018-11-10T07:22:59.017Z,99.90
2018-11-10T07:25:27.624Z,99.90
2018-11-10T07:27:56.192Z,99.90
2018-11-10T07:30:24.559Z,99.90
2018-11-10T07:32:52.871Z,99.90
2018-11-10T07:35:21.291Z,99.90
2018-11-10T07:37:50.929Z,99.90
2018-11-10T07:40:19.667Z,99.90
2018-11-10T07:43:01.159Z,99.90
2018-11-10T07:45:29.607Z,99.90
2018-11-10T07:47:58.106Z,99.90
2018-11-10T07:50:27.511Z,99.90
2018-11-10T07:52:56.092Z,99.90
2018-11-10T07:55:24.516Z,99.90
2018-11-10T07:57:52.997Z,99.90
2018-11-10T08:00:21.446Z,99.90
2018-11-10T08:02:50.310Z,99.90
2018-11-10T08:05:18.807Z,99.90
2018-11-10T08:07:47.281Z,99.90
2018-11-10T08:10:16.156Z,99.90
2018-11-10T08:12:44.848Z,99.90
2018-11-10T08:15:14.552Z,99.90
2018-11-10T08:17:43.290Z,99.90
2018-11-10T08:20:18.019Z,99.90
2018-11-10T08:22:47.382Z,99.90
2018-11-10T08:25:15.957Z,99.90
2018-11-10T08:27:44.455Z,99.90
2018-11-10T08:30:13.939Z,99.90
2018-11-10T08:32:42.929Z,99.90
2018-11-10T08:35:12.652Z,99.90
2018-11-10T08:37:41.152Z,99.90
2018-11-10T08:40:12.766Z,99.90
2018-11-10T08:42:41.439Z,99.90
2018-11-10T08:45:11.366Z,99.90
2018-11-10T08:47:40.875Z,99.90
2018-11-10T08:50:10.370Z,99.90
2018-11-10T08:52:40.400Z,99.90
2018-11-10T08:55:12.552Z,99.90
2018-11-10T08:57:46.471Z,99.90
2018-11-10T09:00:15.226Z,99.90
2018-11-10T09:02:43.765Z,99.90
2018-11-10T09:05:13.317Z,99.90
2018-11-10T09:07:42.131Z,99.90
2018-11-10T09:10:12.431Z,99.90
2018-11-10T09:12:41.101Z,99.90
2018-11-10T09:15:11.725Z,99.90
2018-11-10T09:17:40.532Z,99.90
2018-11-10T09:20:11.485Z,99.90
2018-11-10T09:22:41.453Z,99.90
2018-11-10T09:25:11.817Z,99.90
2018-11-10T09:27:40.757Z,99.90
2018-11-10T09:30:10.893Z,99.90
2018-11-10T09:32:39.552Z,99.90
2018-11-10T09:35:08.978Z,99.90
2018-11-10T09:37:37.495Z,99.90
2018-11-10T09:40:07.576Z,99.90
2018-11-10T09:42:36.210Z,99.90
2018-11-10T09:45:05.957Z,99.90
2018-11-10T09:47:34.392Z,99.90
2018-11-10T09:50:03.093Z,99.90
2018-11-10T09:52:31.744Z,99.90
2018-11-10T09:55:00.141Z,99.90
2018-11-10T09:57:28.810Z,99.90
2018-11-10T09:59:57.277Z,99.90
2018-11-10T10:02:26.546Z,99.90
2018-11-10T10:04:54.943Z,99.90
2018-11-10T10:07:23.600Z,99.90
2018-11-10T10:09:52.633Z,99.90
2018-11-10T10:12:21.361Z,99.90
2018-11-10T10:14:50.413Z,99.90
2018-11-10T10:17:18.870Z,99.90
2018-11-10T10:19:47.688Z,99.90
2018-11-10T10:22:16.121Z,99.90
2018-11-10T10:24:44.595Z,99.90
2018-11-10T10:27:13.494Z,99.90
2018-11-10T10:29:42.112Z,99.90
2018-11-10T10:32:10.763Z,99.90
2018-11-10T10:34:39.287Z,99.90
2018-11-10T10:37:07.921Z,99.90
2018-11-10T10:39:36.487Z,99.90
2018-11-10T10:42:05.149Z,99.90
2018-11-10T10:44:33.676Z,99.90
2018-11-10T10:47:02.351Z,99.90
2018-11-10T10:49:30.762Z,99.90
2018-11-10T10:51:59.171Z,99.90
2018-11-10T10:54:27.753Z,99.90
2018-11-10T10:56:56.360Z,99.90
2018-11-10T10:59:24.666Z,99.90
2018-11-10T11:01:58.321Z,99.90
2018-11-10T11:04:32.274Z,99.90
2018-11-10T11:07:00.656Z,99.90
2018-11-10T11:09:29.282Z,99.90
2018-11-10T11:11:57.795Z,99.90
2018-11-10T11:14:26.259Z,99.90
2018-11-10T11:16:55.129Z,99.90
2018-11-10T11:19:24.328Z,99.90
2018-11-10T11:21:53.024Z,99.90
2018-11-10T11:24:21.487Z,99.90
2018-11-10T11:26:50.608Z,99.90
2018-11-10T11:29:19.517Z,99.90
2018-11-10T11:31:47.919Z,99.90
2018-11-10T11:34:25.877Z,99.90
2018-11-10T11:36:54.562Z,99.90
2018-11-10T11:39:23.239Z,99.90
2018-11-10T11:41:52.201Z,99.90
2018-11-10T11:44:20.668Z,99.90
2018-11-10T11:46:49.314Z,99.90
2018-11-10T11:49:18.133Z,99.90
2018-11-10T11:51:46.523Z,99.90
2018-11-10T11:54:15.361Z,99.90
2018-11-10T11:56:43.739Z,99.90
2018-11-10T11:59:12.384Z,99.90
2018-11-10T12:01:40.785Z,99.90
2018-11-10T12:04:09.444Z,99.90
2018-11-10T12:06:38.052Z,99.90
2018-11-10T12:09:09.034Z,99.90
2018-11-10T12:11:37.675Z,99.90
2018-11-10T12:14:06.244Z,99.90
2018-11-10T12:16:34.818Z,99.90
2018-11-10T12:19:03.572Z,99.90
2018-11-10T12:21:31.989Z,99.90
2018-11-10T12:24:02.503Z,99.90
2018-11-10T12:26:31.158Z,99.90
2018-11-10T12:29:00.730Z,99.90
2018-11-10T12:31:29.448Z,99.90
2018-11-10T12:34:00.191Z,99.90
2018-11-10T12:36:28.605Z,99.90
2018-11-10T12:38:57.030Z,99.90
2018-11-10T12:41:25.753Z,99.90
2018-11-10T12:44:01.395Z,99.90
2018-11-10T12:46:33.891Z,99.90
2018-11-10T12:49:05.411Z,99.90
2018-11-10T12:51:34.721Z,99.90
2018-11-10T12:54:03.401Z,99.90
2018-11-10T12:56:32.072Z,99.90
2018-11-10T12:59:01.360Z,99.90
2018-11-10T13:01:30.366Z,99.90
2018-11-10T13:04:00.968Z,99.90
2018-11-10T13:09:39.080Z,99.90
2018-11-10T13:12:15.182Z,99.90
2018-11-10T13:14:43.670Z,99.90
2018-11-10T13:17:14.120Z,99.90
2018-11-10T13:19:42.928Z,99.90
2018-11-10T13:22:11.481Z,99.90
2018-11-10T13:24:39.917Z,99.90
2018-11-10T13:27:08.517Z,99.90
2018-11-10T13:29:37.206Z,99.90
2018-11-10T13:32:07.130Z,99.90
2018-11-10T13:34:35.537Z,99.90
2018-11-10T13:37:04.251Z,99.90
2018-11-10T13:39:33.560Z,99.90
2018-11-10T13:42:02.376Z,99.90
2018-11-10T13:44:31.064Z,99.90
2018-11-10T13:46:59.644Z,99.90
2018-11-10T13:49:29.065Z,99.90
2018-11-10T13:51:57.910Z,99.90
2018-11-10T13:54:25.979Z,99.90
2018-11-10T13:56:54.896Z,99.90
2018-11-10T13:59:23.590Z,99.90
2018-11-10T14:01:51.920Z,99.90
2018-11-10T14:04:20.345Z,99.90
2018-11-10T14:06:48.812Z,99.90
2018-11-10T14:09:17.652Z,99.90
2018-11-10T14:11:46.025Z,99.90
2018-11-10T14:14:14.801Z,99.90
2018-11-10T14:16:44.467Z,99.90
2018-11-10T14:19:13.024Z,99.90
2018-11-10T14:21:41.404Z,99.90
2018-11-10T14:24:10.066Z,99.90
2018-11-10T14:26:38.957Z,99.90
2018-11-10T14:29:08.488Z,99.90
2018-11-10T14:31:36.939Z,99.90
2018-11-10T14:34:05.698Z,99.90
2018-11-10T14:36:34.313Z,99.90
2018-11-10T14:39:03.070Z,99.90
2018-11-10T14:41:31.889Z,99.90
2018-11-10T14:44:00.492Z,99.90
2018-11-10T14:46:29.159Z,99.90
2018-11-10T14:48:57.799Z,99.90
2018-11-10T14:51:26.358Z,99.90
2018-11-10T14:53:54.864Z,99.90
2018-11-10T14:56:23.928Z,99.90
2018-11-10T14:58:52.413Z,99.90
2018-11-10T15:01:20.822Z,99.90
2018-11-10T15:03:49.314Z,99.90
2018-11-10T15:06:18.012Z,99.90
2018-11-10T15:08:46.732Z,99.90
2018-11-10T15:11:15.345Z,99.90
2018-11-10T15:13:44.636Z,99.90
2018-11-10T15:16:13.461Z,99.90
2018-11-10T15:18:42.142Z,99.90
2018-11-10T15:21:11.310Z,99.90
2018-11-10T15:23:39.865Z,99.90
2018-11-10T15:26:08.299Z,99.90
2018-11-10T15:28:36.921Z,99.90
2018-11-10T15:31:07.273Z,99.90
2018-11-10T15:33:35.702Z,99.90
2018-11-10T15:36:05.592Z,99.90
2018-11-10T15:38:34.846Z,99.90
2018-11-10T15:41:05.577Z,99.90
2018-11-10T15:43:33.946Z,99.90
2018-11-10T15:46:03.827Z,99.90
2018-11-10T15:48:32.310Z,99.90
2018-11-10T15:51:00.756Z,99.90
2018-11-10T15:53:29.152Z,99.90
2018-11-10T15:55:57.721Z,99.90
2018-11-10T15:58:26.518Z,99.90
2018-11-10T16:00:55.218Z,99.90
2018-11-10T16:03:23.865Z,99.90
2018-11-10T16:05:52.572Z,99.90
2018-11-10T16:08:21.026Z,99.90
2018-11-10T16:10:49.796Z,99.90
2018-11-10T16:13:18.396Z,99.90
2018-11-10T16:15:46.772Z,99.90
2018-11-10T16:18:15.255Z,99.90
2018-11-10T16:20:43.674Z,99.90
2018-11-10T16:23:12.493Z,99.90
2018-11-10T16:25:41.003Z,99.90
2018-11-10T16:28:09.511Z,99.90
2018-11-10T16:30:38.018Z,99.90
2018-11-10T16:33:06.698Z,99.90
2018-11-10T16:35:35.455Z,99.90
2018-11-10T16:38:06.101Z,99.90
2018-11-10T16:40:36.019Z,99.90
2018-11-10T16:43:04.680Z,99.90
2018-11-10T16:45:37.121Z,99.90
2018-11-10T16:48:05.998Z,99.90
2018-11-10T16:50:34.642Z,99.90
2018-11-10T16:53:03.222Z,99.90
2018-11-10T16:55:31.697Z,99.90
2018-11-10T16:58:00.133Z,99.90
2018-11-10T17:00:28.647Z,99.90
2018-11-10T17:02:58.636Z,99.90
2018-11-10T17:05:27.026Z,99.90
2018-11-10T17:07:55.558Z,99.90
2018-11-10T17:10:24.105Z,99.90
2018-11-10T17:12:52.600Z,99.90
2018-11-10T17:15:21.097Z,99.90
2018-11-10T17:17:49.473Z,99.90
2018-11-10T17:20:17.893Z,99.90
2018-11-10T17:22:49.880Z,99.90
2018-11-10T17:25:18.297Z,99.90
2018-11-10T17:27:48.440Z,99.90
2018-11-10T17:30:19.361Z,99.90
2018-11-10T17:32:47.638Z,99.90
2018-11-10T17:35:19.685Z,99.90
2018-11-10T17:37:51.732Z,99.90
2018-11-10T17:40:22.465Z,99.90
2018-11-10T17:43:02.408Z,99.90
2018-11-10T17:45:36.135Z,99.90
2018-11-10T17:48:04.880Z,99.90
2018-11-10T17:50:33.352Z,99.90
2018-11-10T17:53:02.675Z,99.90
2018-11-10T17:55:31.082Z,99.90
2018-11-10T17:57:59.758Z,99.90
2018-11-10T18:00:27.965Z,99.90
2018-11-10T18:02:56.436Z,99.90
2018-11-10T18:05:24.956Z,99.90
2018-11-10T18:07:53.352Z,99.90
2018-11-10T18:10:21.814Z,99.90
2018-11-10T18:12:51.280Z,99.90
2018-11-10T18:15:19.815Z,99.90
2018-11-10T18:17:48.295Z,99.90
2018-11-10T18:20:17.539Z,99.90
2018-11-10T18:22:46.247Z,99.90
2018-11-10T18:25:14.915Z,99.90
2018-11-10T18:27:44.203Z,99.90
2018-11-10T18:30:13.722Z,99.90
2018-11-10T18:32:42.449Z,99.90
2018-11-10T18:35:12.046Z,99.90
2018-11-10T18:37:40.899Z,99.90
2018-11-10T18:40:09.376Z,99.90
2018-11-10T18:42:37.749Z,99.90
2018-11-10T18:45:07.485Z,99.90
2018-11-10T18:47:36.122Z,99.90
2018-11-10T18:50:06.483Z,99.90
2018-11-10T18:52:35.049Z,99.90
2018-11-10T18:55:04.236Z,99.90
2018-11-10T18:57:32.911Z,99.90
2018-11-10T19:00:01.264Z,99.90
2018-11-10T19:02:29.660Z,99.90
2018-11-10T19:04:58.778Z,99.90
2018-11-10T19:07:27.368Z,99.90
2018-11-10T19:09:55.891Z,99.90
2018-11-10T19:12:24.412Z,99.90
2018-11-10T19:14:53.802Z,99.90
2018-11-10T19:17:22.334Z,99.90
2018-11-10T19:19:50.860Z,99.90
2018-11-10T19:22:19.798Z,99.90
2018-11-10T19:24:48.225Z,99.90
2018-11-10T19:27:16.851Z,99.90
2018-11-10T19:29:45.441Z,99.90
2018-11-10T19:32:14.540Z,99.90
2018-11-10T19:34:42.922Z,99.90
2018-11-10T19:37:12.763Z,99.90
2018-11-10T19:39:41.232Z,99.90
2018-11-10T19:42:09.750Z,99.90
2018-11-10T19:44:39.288Z,99.90
2018-11-10T19:47:07.784Z,99.90
2018-11-10T19:49:36.764Z,99.90
2018-11-10T19:52:07.716Z,99.90
2018-11-10T19:54:37.200Z,99.90
2018-11-10T19:57:05.873Z,99.90
2018-11-10T19:59:34.322Z,99.90
2018-11-10T20:02:03.021Z,99.90
2018-11-10T20:04:31.421Z,99.90
2018-11-10T20:06:59.796Z,99.90
2018-11-10T20:09:28.488Z,99.90
2018-11-10T20:11:57.231Z,99.90
2018-11-10T20:14:25.821Z,99.90
2018-11-10T20:16:54.433Z,99.90
2018-11-10T20:19:23.002Z,99.90
2018-11-10T20:21:51.598Z,99.90
2018-11-10T20:24:21.455Z,99.90
2018-11-10T20:26:50.200Z,99.90
2018-11-10T20:29:20.281Z,99.90
2018-11-10T20:31:48.975Z,99.90
2018-11-10T20:34:17.697Z,99.90
2018-11-10T20:36:46.946Z,99.90
2018-11-10T20:39:15.888Z,99.90
2018-11-10T20:41:44.532Z,99.90
2018-11-10T20:44:13.081Z,99.90
2018-11-10T20:46:42.822Z,99.90
2018-11-10T20:49:11.518Z,99.90
2018-11-10T20:51:40.324Z,99.90
2018-11-10T20:54:09.300Z,99.90
2018-11-10T20:56:38.121Z,99.90
2018-11-10T20:59:11.560Z,99.90
2018-11-10T21:01:39.964Z,99.90
2018-11-10T21:04:08.900Z,99.90
2018-11-10T21:06:37.610Z,99.90
2018-11-10T21:09:09.047Z,99.90
2018-11-10T21:11:37.649Z,99.90
2018-11-10T21:14:06.920Z,99.90
2018-11-10T21:16:35.621Z,99.90
2018-11-10T21:19:04.519Z,99.90
2018-11-10T21:21:33.071Z,99.90
2018-11-10T21:24:05.167Z,99.90
2018-11-10T21:26:34.021Z,99.90
2018-11-10T21:29:02.580Z,99.90
2018-11-10T21:31:37.682Z,99.90
2018-11-10T21:34:06.747Z,99.90
2018-11-10T21:36:37.209Z,99.90
2018-11-10T21:39:08.383Z,99.90
2018-11-10T21:41:37.145Z,99.90
2018-11-10T21:44:05.960Z,99.90
2018-11-10T21:46:34.707Z,99.90
2018-11-10T21:49:03.305Z,99.90
2018-11-10T21:51:31.929Z,99.90
2018-11-10T21:54:00.504Z,99.90
2018-11-10T21:56:29.087Z,99.90
2018-11-10T21:58:58.479Z,99.90
2018-11-10T22:01:27.155Z,99.90
2018-11-10T22:03:56.042Z,99.90
2018-11-10T22:06:24.703Z,99.90
2018-11-10T22:08:53.386Z,99.90
2018-11-10T22:11:22.557Z,99.90
2018-11-10T22:13:51.261Z,99.90
2018-11-10T22:16:19.911Z,99.90
2018-11-10T22:18:48.732Z,99.90
2018-11-10T22:21:17.350Z,99.90
2018-11-10T22:23:46.872Z,99.90
2018-11-10T22:26:15.813Z,99.90
2018-11-10T22:28:44.397Z,99.90
2018-11-10T22:31:13.057Z,99.90
2018-11-10T22:33:41.514Z,99.90
2018-11-10T22:36:10.043Z,99.90
2018-11-10T22:38:38.674Z,99.90
2018-11-10T22:41:07.268Z,99.90
2018-11-10T22:43:35.929Z,99.90
2018-11-10T22:46:04.601Z,99.90
2018-11-10T22:48:33.136Z,99.90
2018-11-10T22:51:01.610Z,99.90
2018-11-10T22:53:30.173Z,99.90
2018-11-10T22:55:58.795Z,99.90
2018-11-10T22:58:27.396Z,99.90
2018-11-10T23:01:01.679Z,99.90
2018-11-10T23:03:30.376Z,99.90
2018-11-10T23:05:58.852Z,99.90
2018-11-10T23:08:27.458Z,99.90
2018-11-10T23:10:56.599Z,99.90
2018-11-10T23:13:25.360Z,99.90
2018-11-10T23:15:54.029Z,99.90
2018-11-10T23:18:22.778Z,99.90
2018-11-10T23:20:51.445Z,99.90
2018-11-10T23:23:20.209Z,99.90
2018-11-10T23:25:49.859Z,99.90
2018-11-10T23:28:18.614Z,99.90
2018-11-10T23:30:47.253Z,99.90
2018-11-10T23:33:15.919Z,99.90
2018-11-10T23:35:44.499Z,99.90
2018-11-10T23:38:13.951Z,99.90
2018-11-10T23:40:42.512Z,99.90
2018-11-10T23:43:11.118Z,99.90
2018-11-10T23:45:40.473Z,99.90
2018-11-10T23:48:09.159Z,99.90
2018-11-10T23:50:37.832Z,99.90
2018-11-10T23:53:07.062Z,99.90
2018-11-10T23:55:35.697Z,99.90
2018-11-10T23:58:04.533Z,99.90
